KLOT/LOT METAR and TAF weather

Enter ICAO airport designator
Station Type Date Time Source
KLOT METAR 2021/03/06 01:35 UTC NOAA

KLOT 060135Z AUTO 00000KT 10SM OVC090 02/M02 A3035 RMK AO2 T00201025


Station Type Date Time Source
KLOT Decoded METAR 2021/03/06 01:35 UTC NOAA

Chicago/Romeoville, Lewis University Airport, IL, United States (KLOT) 41-36-30N 088-05-39W
Mar 05, 2021 - 08:35 PM EST / 2021.03.06 0135 UTC
Wind: Calm:0
Visibility: 10 mile(s):0
Sky conditions: overcast
Temperature: 35.6 F (2.0 C)
Dew Point: 27.5 F (-2.5 C)
Relative Humidity: 72%
Pressure (altimeter): 30.35 in. Hg (1027 hPa)
ob: KLOT 060135Z AUTO 00000KT 10SM OVC090 02/M02 A3035 RMK AO2 T00201025
cycle: 1

Station Type Date Time Source
KLOT TAF UTC NOAA

Error!

Example: see airport list